AirNav  
 
 1618 users online  

86F Carnegie Municipal Airport
Carnegie, Oklahoma, USA

GOING TO CARNEGIE?


FAA INFORMATION EFFECTIVE 29 MARCH 2018

Location

FAA Identifier: 86F
Lat/Long: 35-07-25.4000N / 098-34-30.9000W
35-07.423333N / 098-34.515000W
35.1237222 / -98.5752500
(estimated)
Elevation: 1354 ft. / 413 m (estimated)
Variation: 07E (1985)
From city: 2 miles NE of CARNEGIE, OK
Time zone: UTC -5 (UTC -6 during Standard Time)
Zip code: 73015

Airport Operations

Airport use: Open to the public
Activation date: 12/1972
Control tower: no
ARTCC: FORT WORTH CENTER
FSS: MC ALESTER FLIGHT SERVICE STATION
NOTAMs facility: MLC (NOTAM-D service available)
Attendance: UNATNDD
Wind indicator: yes
Segmented circle: no
Lights: ACTVT MIRL RY 17/35 - CTAF.

Airport Communications

CTAF: 122.9

Nearby radio navigation aids

VOR radial/distance  VOR name  Freq  Var
HBRr047/28.5HOBART VORTAC111.8010E
BFVr097/31.7BURNS FLAT VORTAC110.0005E
LAWr339/38.5LAWTON VOR/DME109.4009E

 
NDB name  Hdg/Dist  Freq  Var  ID
TRAIL329/22.238809EOFZ --- ..-. --..
POST337/32.042508EPFL .--. ..-. .-..

Airport Services

Parking: tiedowns
Airframe service: NONE
Powerplant service: NONE
Bottled oxygen: NONE
Bulk oxygen: NONE

Runway Information

Runway 17/35

Dimensions: 3000 x 60 ft. / 914 x 18 m
Surface: asphalt/concrete, in fair condition
Weight bearing capacity: 
Single wheel: 11.0
Runway edge lights: medium intensity
Gradient: S.
RUNWAY 17  RUNWAY 35
Latitude: 35-07.670003N35-07.175358N
Longitude: 098-34.512895W098-34.516102W
Elevation: 1342.0 ft.1354.0 ft.
Gradient: 0.4% UP0.4%
Traffic pattern: leftleft
Runway heading: 173 magnetic, 180 true353 magnetic, 000 true
Markings: basic, in fair conditionbasic, in fair condition
Obstructions: none9 ft. tree, 365 ft. from runway, 50 ft. left of centerline, 18:1 slope to clear
RWY 35 HAS 13 FT TREE 165 FT FROM RWY END AND 65 FT R.

Airport Ownership and Management from official FAA records

Ownership: Publicly-owned
Owner: CITY OF CARNEGIE
PO BOX 1075, 11 E MAIN
CARNEGIE, OK 73015
Phone 580-654-1004
Manager: ROBERT PETTIT
30150 COUNTY STREET 2475
CARNEGIE, OK 73015
Phone (580) 574-3140

Airport Operational Statistics

Aircraft based on the field: 10
Single engine airplanes: 9
Helicopters: 1
    
Aircraft operations: avg 42/month *
60% transient general aviation
40% local general aviation
* for 12-month period ending 12 May 2017

Instrument Procedures

There are no published instrument procedures at 86F.

Some nearby airports with instrument procedures:

KHBR - Hobart Regional Airport (25 nm W)
2O8 - Hinton Municipal Airport (26 nm NE)
KOJA - Thomas P Stafford Airport (26 nm N)
KFSI - Henry Post Army Airfield (Fort Sill) (30 nm S)
KCHK - Chickasha Municipal Airport (30 nm E)
 
Loc | Ops | Rwys | IFR | FBO | Links
Com | Nav | Svcs | Stats | Notes

AirNav Hotels Sweepstakes
 
Area around 86F (Carnegie Municipal Airport)
 
Road maps at: MapQuest Bing Google
 
Aerial photo
WARNING: Photo may not be current or correct
Aerial photo of 86F (Carnegie Municipal Airport)
Photo taken 12-Nov-2005
looking North just before sunset

Do you have a better or more recent aerial photo of Carnegie Municipal Airport that you would like to share? If so, please send us your photo.

 
Sectional chart

 
Airport distance calculator
Flying to Carnegie Municipal Airport? Find the distance to fly.

From to 86F

Sunrise and sunset
Times for 25-Apr-2018
 Local
(UTC-5)
 Zulu
(UTC)
Morning civil twilight06:2411:24
Sunrise06:5111:51
Sunset20:1401:14
Evening civil twilight20:4001:40

Current date and time
Zulu (UTC)  25-Apr-2018 15:15:40
Local (UTC-5)  25-Apr-2018 10:15:40
 
METAR
KHBR 
25nm W 
251502Z AUTO 35015KT 10SM -RA BKN012 BKN050 OVC075 07/06 A3029 RMK AO2 P0000 T00720056
KOJA 
26nm N 
251455Z AUTO 33015KT 10SM -DZ SCT009 BKN014 OVC100 06/06 A3027 RMK AO2 P0004
KCHK 
30nm E 
251455Z AUTO 35012KT 10SM RA OVC010 08/06 A3022 RMK AO2 LTG DSNT SW P0010 T00760065 60040
KFSI 
31nm S 
251456Z AUTO 35006KT 8SM TSRA BKN007 OVC011 08/08 A3025 RMK AO2 TSB47 CIG 007V010 SLP242 P0015 60037 T00770077 52024
KCSM 
33nm NW 
251453Z 33014G21KT 10SM BKN011 OVC085 06/04 A3029 RMK AO2 RAE38 SLP255 P0000 60025 T00560044 51018
KRQO 
35nm NE 
251455Z AUTO 34020G26KT 10SM -RA OVC008 07/06 A3025 RMK AO2 P0008 T00710061 60049
KLAW 
35nm S 
251503Z 35012KT 5SM -RA BR SCT013 BKN060 OVC085 08/07 A3026 RMK AO2 LTG DSNT S-W TSE03 P0002 T00830072
KRCE 
43nm NE 
251455Z AUTO 33013G19KT 7SM -RA BKN009 BKN013 07/06 A3024 RMK AO2 P0012
KLTS 
44nm SW 
251446Z AUTO 34009KT 10SM RA BKN013 OVC065 07/06 A3029 RMK AO2 VIS 2 3/4 RWY17R TSE15TSB31E46 CIG 012 RWY17L CIG 011 RWY35R SLP255 $
KELK 
44nm NW 
251455Z AUTO 33013G20KT 10SM BKN012 OVC090 06/05 A3028 RMK AO2 60013 T00600047
TAF
KFSI 
31nm S 
251405Z 2514/2619 36015G20KT 8000 -SHRA BKN008 QNH3012INS TEMPO 2514/2515 35015G25KT 6000 -TSRA BKN012CB BECMG 2517/2518 34012G18KT 9999 NSW BKN050 QNH3005INS BECMG 2523/2524 35006KT 9999 SKC QNH3001INS BECMG 2609/2610 34005KT 8000 BR FEW200 QNH3000INS BECMG 2614/2615 33005KT 9999 NSW FEW150 QNH2999INS TX18/2521Z TN02/2612Z
NOTAMs
Click for the latest NOTAMs
NOTAMs are issued by the DoD/FAA and will open in a separate window not controlled by AirNav.

 

 
 

Would you like to see your business listed on this page?

 If your business provides an interesting product or service to pilots, flight crews, aircraft, or users of the Carnegie Municipal Airport, you should consider listing it here.  To start the listing process, click on the button below
 
Add a business
 

Other Pages about Carnegie Municipal Airport

Update a link
 
Copyright © AirNav, LLC. All rights reserved. Privacy Policy  Contact